createdAt,value
2022-12-05T00:00:26.269Z,25.63
2022-12-05T00:05:30.150Z,26.27
2022-12-05T00:10:31.795Z,24.35
2022-12-05T00:15:41.180Z,23.40
2022-12-05T00:20:51.296Z,20.88
2022-12-05T00:25:52.865Z,24.08
2022-12-05T00:30:59.536Z,22.98
2022-12-05T00:36:06.496Z,22.65
2022-12-05T00:41:11.527Z,21.63
2022-12-05T00:46:16.937Z,24.17
2022-12-05T00:51:28.377Z,26.40
2022-12-05T00:56:31.041Z,25.63
2022-12-05T01:01:38.539Z,22.30
2022-12-05T01:06:41.099Z,25.63
2022-12-05T01:11:43.489Z,24.30
2022-12-05T01:16:47.485Z,23.52
2022-12-05T01:21:49.806Z,22.15
2022-12-05T01:26:52.302Z,24.02
2022-12-05T01:31:54.826Z,19.90
2022-12-05T01:36:56.562Z,19.90
2022-12-05T01:41:58.276Z,21.27
2022-12-05T01:46:59.913Z,20.80
2022-12-05T01:52:18.927Z,19.00
2022-12-05T01:57:20.658Z,19.08
2022-12-05T02:02:22.735Z,22.25
2022-12-05T02:07:24.776Z,22.15
2022-12-05T02:12:26.843Z,20.38
2022-12-05T02:17:54.114Z,19.80
2022-12-05T02:23:17.805Z,18.85
2022-12-05T02:28:44.482Z,17.90
2022-12-05T02:33:50.640Z,18.67
2022-12-05T02:39:12.658Z,22.23
2022-12-05T02:44:23.049Z,21.65
2022-12-05T02:49:30.482Z,19.10
2022-12-05T02:54:41.804Z,19.23
2022-12-05T02:59:43.444Z,17.63
2022-12-05T03:04:45.117Z,17.98
2022-12-05T03:09:59.394Z,22.45
2022-12-05T03:15:07.674Z,19.95
2022-12-05T03:20:15.315Z,19.00
2022-12-05T03:25:17.734Z,19.55
2022-12-05T03:30:22.666Z,15.70
2022-12-05T03:35:43.578Z,19.55
2022-12-05T03:40:54.581Z,16.88
2022-12-05T03:46:00.840Z,16.70
2022-12-05T03:51:06.518Z,16.15
2022-12-05T03:56:13.450Z,19.08
2022-12-05T04:01:18.425Z,19.73
2022-12-05T04:06:26.759Z,16.30
2022-12-05T04:11:33.209Z,17.58
2022-12-05T04:17:05.717Z,16.98
2022-12-05T04:22:07.486Z,16.55
2022-12-05T04:27:27.956Z,20.88
2022-12-05T04:37:39.576Z,22.48
2022-12-05T04:42:43.170Z,22.58
2022-12-05T04:47:51.080Z,22.25
2022-12-05T04:52:57.032Z,25.15
2022-12-05T04:58:11.944Z,24.65
2022-12-05T05:03:24.872Z,27.92
2022-12-05T05:08:29.108Z,26.38
2022-12-05T05:13:30.685Z,23.40
2022-12-05T05:18:32.729Z,23.38
2022-12-05T05:23:34.586Z,19.13
2022-12-05T05:28:36.317Z,19.63
2022-12-05T05:33:38.654Z,20.63
2022-12-05T05:38:43.354Z,17.80
2022-12-05T05:43:45.899Z,20.00
2022-12-05T05:48:47.943Z,17.17
2022-12-05T05:53:49.802Z,17.15
2022-12-05T05:59:01.980Z,17.88
2022-12-05T06:04:03.799Z,12.52
2022-12-05T06:09:07.347Z,12.57
2022-12-05T06:14:09.620Z,11.70
2022-12-05T06:19:11.295Z,12.05
2022-12-05T06:24:12.983Z,7.63
2022-12-05T06:29:14.640Z,11.15
2022-12-05T06:34:16.440Z,10.38
2022-12-05T06:39:18.210Z,11.50
2022-12-05T06:44:21.704Z,11.35
2022-12-05T06:49:30.753Z,13.38
2022-12-05T06:54:34.499Z,10.07
2022-12-05T06:59:36.449Z,10.23
2022-12-05T07:04:38.075Z,10.13
2022-12-05T07:09:51.616Z,8.70
2022-12-05T07:14:53.306Z,9.98
2022-12-05T07:19:54.990Z,7.95
2022-12-05T07:24:56.725Z,7.97
2022-12-05T07:29:58.700Z,9.07
2022-12-05T07:35:00.605Z,7.72
2022-12-05T07:40:02.309Z,9.80
2022-12-05T07:45:04.515Z,7.25
2022-12-05T07:50:07.063Z,7.65
2022-12-05T07:55:09.121Z,6.57
2022-12-05T08:00:11.411Z,7.97
2022-12-05T08:05:15.979Z,9.90
2022-12-05T08:10:17.715Z,6.55
2022-12-05T08:15:19.310Z,8.82
2022-12-05T08:20:20.958Z,7.43
2022-12-05T08:25:22.617Z,7.50
2022-12-05T08:30:24.312Z,9.93
2022-12-05T08:35:26.286Z,8.38
2022-12-05T08:40:27.959Z,7.82
2022-12-05T08:45:29.618Z,7.15
2022-12-05T08:50:31.185Z,6.43
2022-12-05T08:55:34.940Z,8.02
2022-12-05T09:00:36.589Z,8.52
2022-12-05T09:05:38.812Z,6.78
2022-12-05T09:10:40.533Z,7.03
2022-12-05T09:15:42.289Z,9.30
2022-12-05T09:20:44.548Z,9.18
2022-12-05T09:25:58.109Z,7.78
2022-12-05T09:31:02.160Z,5.57
2022-12-05T09:36:33.323Z,9.18
2022-12-05T09:42:07.976Z,11.13
2022-12-05T09:47:36.473Z,8.93
2022-12-05T09:52:41.565Z,8.15
2022-12-05T09:57:51.750Z,7.90
2022-12-05T10:03:05.318Z,6.05
2022-12-05T10:08:26.482Z,11.73
2022-12-05T10:13:46.040Z,11.75
2022-12-05T10:18:53.702Z,7.32
2022-12-05T10:24:02.882Z,6.72
2022-12-05T10:29:14.928Z,8.57
2022-12-05T10:34:26.981Z,7.32
2022-12-05T10:39:28.695Z,9.23
2022-12-05T10:44:32.147Z,8.73
2022-12-05T10:49:34.513Z,8.40
2022-12-05T10:54:44.384Z,9.02
2022-12-05T10:59:47.645Z,9.10
2022-12-05T11:04:51.159Z,9.77
2022-12-05T11:09:54.534Z,11.02
2022-12-05T11:15:25.586Z,7.15
2022-12-05T11:20:27.341Z,7.82
2022-12-05T11:25:32.910Z,5.85
2022-12-05T11:30:34.720Z,8.45
2022-12-05T11:35:37.941Z,8.32
2022-12-05T11:41:04.387Z,7.40
2022-12-05T11:46:22.252Z,7.63
2022-12-05T11:52:04.100Z,7.82
2022-12-05T11:57:34.077Z,11.38
2022-12-05T12:03:03.024Z,8.60
2022-12-05T12:08:28.456Z,11.88
2022-12-05T12:13:36.035Z,9.43
2022-12-05T12:18:53.298Z,14.52
2022-12-05T12:24:19.094Z,10.80
2022-12-05T12:29:20.650Z,10.43
2022-12-05T12:34:46.226Z,14.15
2022-12-05T12:40:13.186Z,12.80
2022-12-05T12:45:46.084Z,10.93
2022-12-05T12:50:52.821Z,12.15
2022-12-05T12:56:06.605Z,12.13
2022-12-05T13:01:36.406Z,12.88
2022-12-05T13:06:49.575Z,12.07
2022-12-05T13:11:53.315Z,11.50
2022-12-05T13:16:58.187Z,9.85
2022-12-05T13:22:00.813Z,14.32
2022-12-05T13:27:06.939Z,11.75
2022-12-05T13:32:36.300Z,11.30
2022-12-05T13:38:05.275Z,10.15
2022-12-05T13:43:07.530Z,8.68
2022-12-05T13:48:26.450Z,11.40
2022-12-05T13:53:39.477Z,12.25
2022-12-05T13:58:43.915Z,11.05
2022-12-05T14:03:48.663Z,11.57
2022-12-05T14:08:52.686Z,9.88
2022-12-05T14:13:58.007Z,8.80
2022-12-05T14:19:33.893Z,7.13
2022-12-05T14:24:50.251Z,10.07
2022-12-05T14:30:16.183Z,6.82
2022-12-05T14:35:25.493Z,11.05
2022-12-05T14:40:40.727Z,11.70
2022-12-05T14:45:58.333Z,8.25
2022-12-05T14:51:02.913Z,11.00
2022-12-05T14:56:16.281Z,8.25
2022-12-05T15:01:28.748Z,11.07
2022-12-05T15:06:33.536Z,9.43
2022-12-05T15:11:37.972Z,7.78
2022-12-05T15:16:43.811Z,8.80
2022-12-05T15:21:56.783Z,11.07
2022-12-05T15:27:03.569Z,7.93
2022-12-05T15:32:11.330Z,10.57
2022-12-05T15:37:28.358Z,7.28
2022-12-05T15:42:35.767Z,7.05
2022-12-05T15:47:38.977Z,10.75
2022-12-05T15:52:53.927Z,9.23
2022-12-05T15:58:13.043Z,10.13
2022-12-05T16:03:38.794Z,8.88
2022-12-05T16:08:47.893Z,12.73
2022-12-05T16:13:58.418Z,14.63
2022-12-05T16:19:05.507Z,10.02
2022-12-05T16:24:30.276Z,7.85
2022-12-05T16:29:35.033Z,8.23
2022-12-05T16:34:36.803Z,12.88
2022-12-05T16:39:38.978Z,9.65
2022-12-05T16:44:46.387Z,11.70
2022-12-05T16:49:48.084Z,10.93
2022-12-05T16:54:52.212Z,9.48
2022-12-05T16:59:56.929Z,11.25
2022-12-05T17:05:03.135Z,8.65
2022-12-05T17:10:05.696Z,10.32
2022-12-05T17:15:15.255Z,10.20
2022-12-05T17:20:18.453Z,8.70
2022-12-05T17:25:33.768Z,7.75
2022-12-05T17:30:35.452Z,6.80
2022-12-05T17:35:37.846Z,11.43
2022-12-05T17:40:40.306Z,9.25
2022-12-05T17:45:43.271Z,9.35
2022-12-05T17:50:47.985Z,7.55
2022-12-05T17:55:49.735Z,7.68
2022-12-05T18:00:51.378Z,8.85
2022-12-05T18:05:53.019Z,7.13
2022-12-05T18:10:56.206Z,8.45
2022-12-05T18:15:58.252Z,8.90
2022-12-05T18:21:08.262Z,8.45
2022-12-05T18:26:10.640Z,8.63
2022-12-05T18:31:17.124Z,6.38
2022-12-05T18:36:21.070Z,7.82
2022-12-05T18:41:23.833Z,6.32
2022-12-05T18:46:25.540Z,9.85
2022-12-05T18:51:27.949Z,11.60
2022-12-05T18:56:34.723Z,5.85
2022-12-05T19:01:38.851Z,7.78
2022-12-05T19:06:43.285Z,8.25
2022-12-05T19:11:47.800Z,10.13
2022-12-05T19:16:58.008Z,10.77
2022-12-05T19:22:02.420Z,8.07
2022-12-05T19:27:04.235Z,11.05
2022-12-05T19:32:06.065Z,10.05
2022-12-05T19:37:07.833Z,12.27
2022-12-05T19:42:09.525Z,10.88
2022-12-05T19:47:11.272Z,10.60
2022-12-05T19:52:17.773Z,9.38
2022-12-05T19:57:19.846Z,7.72
2022-12-05T20:02:24.116Z,9.43
2022-12-05T20:07:25.859Z,9.30
2022-12-05T20:12:27.489Z,10.30
2022-12-05T20:17:29.133Z,9.30
2022-12-05T20:22:31.027Z,9.68
2022-12-05T20:27:34.111Z,11.57
2022-12-05T20:32:35.761Z,10.05
2022-12-05T20:37:37.647Z,8.38
2022-12-05T20:42:44.969Z,7.78
2022-12-05T20:47:48.278Z,14.40
2022-12-05T20:52:49.939Z,8.93
2022-12-05T20:57:53.699Z,9.45
2022-12-05T21:02:56.727Z,8.02
2022-12-05T21:07:58.472Z,10.85
2022-12-05T21:13:00.117Z,13.55
2022-12-05T21:18:02.093Z,9.45
2022-12-05T21:23:04.065Z,8.90
2022-12-05T21:28:05.746Z,7.78
2022-12-05T21:33:07.435Z,11.48
2022-12-05T21:38:09.085Z,11.10
2022-12-05T21:43:10.726Z,6.75
2022-12-05T21:48:12.374Z,5.95
2022-12-05T21:53:14.189Z,8.85
2022-12-05T21:58:15.909Z,14.18
2022-12-05T22:03:17.579Z,8.43
2022-12-05T22:08:19.324Z,10.77
2022-12-05T22:13:21.039Z,9.88
2022-12-05T22:18:22.973Z,5.03
2022-12-05T22:23:25.261Z,11.27
2022-12-05T22:28:28.254Z,7.70
2022-12-05T22:33:31.682Z,4.30
2022-12-05T22:38:39.095Z,9.25
2022-12-05T22:43:42.087Z,9.38
2022-12-05T22:48:44.479Z,7.63
2022-12-05T22:53:49.724Z,8.23
2022-12-05T22:58:59.826Z,5.82
2022-12-05T23:04:06.418Z,8.50
2022-12-05T23:09:10.104Z,5.95
2022-12-05T23:14:11.780Z,7.32
2022-12-05T23:19:13.410Z,7.50
2022-12-05T23:24:15.036Z,5.53
2022-12-05T23:29:16.649Z,6.10
2022-12-05T23:34:18.364Z,6.78
2022-12-05T23:39:20.169Z,6.40
2022-12-05T23:44:22.734Z,7.55
2022-12-05T23:49:24.368Z,5.70
2022-12-05T23:54:26.105Z,7.10
2022-12-05T23:59:27.765Z,7.15
